Time;durP1;ratioP1;P1;durP2;ratioP2;P2;SDS_P1;SDS_P2;PMS_P1;PMS_P2;Temp;Humidity;BMP_temperature;BMP_pressure;BME280_temperature;BME280_humidity;BME280_pressure;Samples;Min_cycle;Max_cycle;Signal;HPM_P1;HPM_P2
2024/04/06 00:02:23;;;;;;;2.30;1.10;;;12.10;95.60;;;;;;5073377;28;20506;-63
2024/04/06 00:04:49;;;;;;;1.30;1.20;;;12.10;95.30;;;;;;5073436;28;20165;-64
2024/04/06 00:07:14;;;;;;;2.83;1.07;;;12.00;95.70;;;;;;5073432;28;20196;-64
2024/04/06 00:09:40;;;;;;;2.70;2.00;;;12.10;95.40;;;;;;5073099;28;20204;-64
2024/04/06 00:12:06;;;;;;;1.47;1.30;;;12.10;95.50;;;;;;5073286;28;20173;-63
2024/04/06 00:14:32;;;;;;;1.40;0.80;;;12.20;95.30;;;;;;5073203;28;20603;-63
2024/04/06 00:16:57;;;;;;;1.33;1.27;;;12.00;95.90;;;;;;5073105;28;20534;-64
2024/04/06 00:19:23;;;;;;;0.87;0.87;;;12.00;96.30;;;;;;5072743;28;20272;-63
2024/04/06 00:21:49;;;;;;;2.00;0.90;;;12.00;95.90;;;;;;5054558;28;20231;-63
2024/04/06 00:24:14;;;;;;;1.43;1.17;;;12.10;95.70;;;;;;5072743;28;20257;-64
2024/04/06 00:26:40;;;;;;;2.30;0.93;;;12.10;95.50;;;;;;5073064;28;20174;-64
2024/04/06 00:29:06;;;;;;;7.70;1.20;;;12.00;95.80;;;;;;5054591;28;20205;-64
2024/04/06 00:31:31;;;;;;;0.87;0.87;;;12.00;95.80;;;;;;5072529;28;20231;-64
2024/04/06 00:34:01;;;;;;;1.60;1.20;;;11.90;96.00;;;;;;5038223;28;20169;-63
2024/04/06 00:36:28;;;;;;;1.57;1.13;;;12.10;95.90;;;;;;5072555;28;20164;-64
2024/04/06 00:38:54;;;;;;;0.80;0.80;;;12.00;95.80;;;;;;5073253;28;20810;-64
2024/04/06 00:41:19;;;;;;;1.43;1.33;;;12.30;95.70;;;;;;5072685;28;20395;-64
2024/04/06 00:43:45;;;;;;;1.13;1.13;;;12.40;94.80;;;;;;5072532;28;20239;-64
2024/04/06 00:46:10;;;;;;;0.80;0.80;;;12.30;95.00;;;;;;5072433;28;20178;-64
2024/04/06 00:48:36;;;;;;;1.13;1.13;;;12.30;94.80;;;;;;5072409;28;20189;-64
2024/04/06 00:51:05;;;;;;;1.53;0.80;;;12.20;95.10;;;;;;5072202;28;20219;-64
2024/04/06 00:53:32;;;;;;;3.70;1.43;;;12.20;95.20;;;;;;5072360;28;20178;-64
2024/04/06 00:55:58;;;;;;;1.50;1.00;;;12.00;95.60;;;;;;5072265;28;20415;-64
2024/04/06 00:58:24;;;;;;;3.03;1.07;;;12.10;95.10;;;;;;5071946;28;20472;-64
2024/04/06 01:00:49;;;;;;;17.07;1.43;;;12.00;95.60;;;;;;5072563;28;20399;-64
2024/04/06 01:03:15;;;;;;;4.00;1.00;;;11.90;95.70;;;;;;5072102;28;20901;-64
2024/04/06 01:05:41;;;;;;;1.40;1.23;;;11.90;95.90;;;;;;5072431;28;20189;-64
2024/04/06 01:08:07;;;;;;;1.57;1.47;;;11.90;95.90;;;;;;5071909;28;20459;-64
2024/04/06 01:10:33;;;;;;;1.07;1.07;;;11.90;95.80;;;;;;5072025;28;20169;-64
2024/04/06 01:12:59;;;;;;;1.27;1.20;;;11.90;95.90;;;;;;5072014;28;20161;-64
2024/04/06 01:15:24;;;;;;;1.80;1.50;;;11.90;96.10;;;;;;5072243;28;20412;-64
2024/04/06 01:17:56;;;;;;;2.00;1.10;;;12.00;95.70;;;;;;5072285;28;20217;-64
2024/04/06 01:20:22;;;;;;;1.57;1.30;;;11.90;96.00;;;;;;5053894;28;20195;-64
2024/04/06 01:22:48;;;;;;;1.43;1.30;;;11.90;96.10;;;;;;5054186;28;20494;-64
2024/04/06 01:25:13;;;;;;;1.00;1.00;;;11.90;96.10;;;;;;5072148;28;20439;-63
2024/04/06 01:27:39;;;;;;;1.10;1.10;;;11.90;96.20;;;;;;5071645;28;20186;-64
2024/04/06 01:30:07;;;;;;;1.33;1.17;;;12.00;95.90;;;;;;5071480;28;20177;-64
2024/04/06 01:32:32;;;;;;;2.08;1.13;;;12.00;95.80;;;;;;5072003;28;20412;-64
2024/04/06 01:34:59;;;;;;;1.80;0.93;;;12.10;95.40;;;;;;5071653;28;20235;-63
2024/04/06 01:37:25;;;;;;;1.33;1.23;;;12.00;95.60;;;;;;5071623;28;20204;-64
2024/04/06 01:39:51;;;;;;;1.00;0.90;;;11.90;95.80;;;;;;5071417;28;20408;-63
2024/04/06 01:42:16;;;;;;;1.10;1.00;;;11.90;95.70;;;;;;5071641;28;20157;-64
2024/04/06 01:44:42;;;;;;;0.87;0.77;;;12.00;95.60;;;;;;5071708;28;20180;-64
2024/04/06 01:47:07;;;;;;;1.80;1.03;;;12.00;95.90;;;;;;5072123;28;20173;-63
2024/04/06 01:49:34;;;;;;;2.43;1.50;;;12.00;95.80;;;;;;5071684;28;20197;-64
2024/04/06 01:51:59;;;;;;;3.35;2.30;;;11.90;95.90;;;;;;5071978;28;20554;-63
2024/04/06 01:54:25;;;;;;;3.80;1.30;;;12.00;95.60;;;;;;5072006;28;20188;-63
2024/04/06 01:56:51;;;;;;;1.60;1.30;;;12.10;95.30;;;;;;5071421;28;20201;-64
2024/04/06 01:59:16;;;;;;;0.90;0.90;;;11.90;95.70;;;;;;5071252;28;20557;-63
2024/04/06 02:01:43;;;;;;;1.30;0.93;;;11.90;95.80;;;;;;5071297;28;20170;-63
2024/04/06 02:04:09;;;;;;;2.10;1.30;;;12.00;95.80;;;;;;5071760;28;20590;-63
2024/04/06 02:06:35;;;;;;;3.37;1.13;;;11.90;95.90;;;;;;5071383;28;20161;-63
2024/04/06 02:09:01;;;;;;;1.53;1.40;;;11.80;96.10;;;;;;5071142;28;20427;-63
2024/04/06 02:11:26;;;;;;;1.23;1.13;;;11.90;96.10;;;;;;5070106;28;20169;-64
2024/04/06 02:13:52;;;;;;;3.13;1.20;;;11.80;95.90;;;;;;5053309;28;20205;-64
2024/04/06 02:16:17;;;;;;;5.60;2.17;;;11.90;95.90;;;;;;5071460;28;20594;-64
2024/04/06 02:18:43;;;;;;;1.30;1.20;;;11.90;95.60;;;;;;5036193;28;20209;-64
2024/04/06 02:21:10;;;;;;;1.80;1.70;;;11.90;95.20;;;;;;5071305;28;20173;-64
2024/04/06 02:23:36;;;;;;;1.38;1.10;;;11.90;96.90;;;;;;5071420;28;20334;-64
2024/04/06 02:26:02;;;;;;;1.27;1.17;;;12.00;97.00;;;;;;5071122;28;20707;-64
2024/04/06 02:28:27;;;;;;;1.67;1.57;;;11.90;97.30;;;;;;5070509;28;20698;-64
2024/04/06 02:30:53;;;;;;;1.87;1.40;;;11.70;97.70;;;;;;5071047;28;20705;-64
2024/04/06 02:33:19;;;;;;;1.30;1.13;;;11.30;97.60;;;;;;5053087;28;20181;-63
2024/04/06 02:35:44;;;;;;;1.40;1.40;;;11.70;97.80;;;;;;5071191;28;20346;-64
2024/04/06 02:38:10;;;;;;;1.50;1.40;;;11.70;98.00;;;;;;5070918;28;20214;-64
2024/04/06 02:40:36;;;;;;;5.33;1.40;;;11.70;98.10;;;;;;5071119;28;20165;-63
2024/04/06 02:43:01;;;;;;;1.00;1.00;;;11.70;98.10;;;;;;5070376;28;20192;-64
2024/04/06 02:45:27;;;;;;;1.20;1.07;;;11.70;98.30;;;;;;5071311;28;20180;-64
2024/04/06 02:47:53;;;;;;;1.33;1.10;;;11.80;97.60;;;;;;5074291;28;20201;-64
2024/04/06 02:50:19;;;;;;;1.30;1.20;;;11.60;98.30;;;;;;5074115;28;20173;-63
2024/04/06 02:52:44;;;;;;;3.73;1.57;;;11.70;98.30;;;;;;5074861;28;20166;-64
2024/04/06 02:55:10;;;;;;;1.50;1.13;;;11.60;98.40;;;;;;5074500;28;20177;-64
2024/04/06 02:57:36;;;;;;;1.57;1.40;;;11.70;98.40;;;;;;5073946;28;20634;-64
2024/04/06 03:00:03;;;;;;;1.77;1.55;;;11.70;98.00;;;;;;5074225;28;20165;-64
2024/04/06 03:02:29;;;;;;;0.95;0.95;;;11.80;98.00;;;;;;5071671;28;20226;-64
2024/04/06 03:04:55;;;;;;;4.90;1.60;;;11.80;98.20;;;;;;5074110;28;20618;-64
2024/04/06 03:07:21;;;;;;;2.60;1.30;;;11.80;98.10;;;;;;5073875;28;20411;-64
2024/04/06 03:09:46;;;;;;;2.40;1.23;;;11.80;98.20;;;;;;5073666;28;20172;-64
2024/04/06 03:12:12;;;;;;;1.10;1.00;;;11.70;98.40;;;;;;5074040;28;20174;-64
2024/04/06 03:14:38;;;;;;;1.40;1.30;;;11.60;98.60;;;;;;5074171;28;20310;-63
2024/04/06 03:17:04;;;;;;;1.67;1.30;;;11.80;98.80;;;;;;5073876;28;20194;-63
2024/04/06 03:19:29;;;;;;;1.50;1.40;;;11.90;98.50;;;;;;5073332;28;20193;-64
2024/04/06 03:21:56;;;;;;;1.30;1.20;;;11.90;98.50;;;;;;5073886;28;20404;-63
2024/04/06 03:24:22;;;;;;;1.30;1.20;;;11.70;98.30;;;;;;5073836;28;20256;-63
2024/04/06 03:26:47;;;;;;;2.73;1.30;;;11.50;99.10;;;;;;5073647;28;20510;-64
2024/04/06 03:29:13;;;;;;;3.03;1.20;;;11.60;99.00;;;;;;5073942;28;20186;-63
2024/04/06 03:31:39;;;;;;;3.22;1.67;;;11.70;98.50;;;;;;5073907;28;20673;-63
2024/04/06 03:34:05;;;;;;;0.90;0.90;;;11.70;98.70;;;;;;5073904;28;20174;-64
2024/04/06 03:36:31;;;;;;;1.30;1.20;;;11.70;98.70;;;;;;5074040;28;20173;-64
2024/04/06 03:38:56;;;;;;;2.30;1.50;;;11.60;99.00;;;;;;5073727;28;20189;-64
2024/04/06 03:41:22;;;;;;;1.43;1.33;;;11.70;99.10;;;;;;5073671;28;20591;-64
2024/04/06 03:43:48;;;;;;;1.42;1.33;;;11.70;98.50;;;;;;5073794;28;20715;-64
2024/04/06 03:46:13;;;;;;;2.10;1.57;;;11.90;98.20;;;;;;5073673;28;20177;-64
2024/04/06 03:48:40;;;;;;;2.03;1.27;;;11.60;97.90;;;;;;5073535;28;20193;-64
2024/04/06 03:51:06;;;;;;;1.25;1.15;;;11.50;98.30;;;;;;5055424;28;20180;-64
2024/04/06 03:53:35;;;;;;;0.93;0.90;;;11.40;98.30;;;;;;5073819;28;20287;-64
2024/04/06 03:56:01;;;;;;;5.95;1.20;;;11.50;98.60;;;;;;5073950;28;20403;-63
2024/04/06 03:58:27;;;;;;;1.30;1.00;;;11.50;98.40;;;;;;5054373;28;20247;-64
2024/04/06 04:00:53;;;;;;;2.23;1.20;;;11.50;98.40;;;;;;5073298;28;20250;-64
2024/04/06 04:03:19;;;;;;;1.35;1.27;;;11.20;98.30;;;;;;5073671;28;20189;-64
2024/04/06 04:05:45;;;;;;;1.90;1.47;;;11.60;98.70;;;;;;5073330;28;20174;-63
2024/04/06 04:08:10;;;;;;;2.57;1.03;;;11.50;98.60;;;;;;5073548;28;20193;-64
2024/04/06 04:10:37;;;;;;;1.80;1.50;;;11.50;98.70;;;;;;5072900;28;20275;-64
2024/04/06 04:13:05;;;;;;;1.67;1.42;;;11.40;98.80;;;;;;5073338;28;20180;-64
2024/04/06 04:15:31;;;;;;;1.50;1.40;;;11.30;98.90;;;;;;5074009;28;20598;-63
2024/04/06 04:17:57;;;;;;;1.75;1.58;;;10.70;99.90;;;;;;5055858;28;20205;-63
2024/04/06 04:20:22;;;;;;;1.53;1.43;;;10.80;99.90;;;;;;5072659;28;20227;-63
2024/04/06 04:22:48;;;;;;;2.53;1.67;;;10.30;99.90;;;;;;5072974;28;20223;-63
2024/04/06 04:25:14;;;;;;;1.83;1.40;;;10.00;99.90;;;;;;5072703;28;20158;-63
2024/04/06 04:27:40;;;;;;;1.60;1.50;;;9.60;99.90;;;;;;5072732;28;20232;-63
2024/04/06 04:30:06;;;;;;;1.83;1.23;;;9.50;99.90;;;;;;5054802;28;20178;-63
2024/04/06 04:32:32;;;;;;;1.83;0.90;;;9.40;99.90;;;;;;5073264;28;20196;-63
2024/04/06 04:34:57;;;;;;;1.40;1.30;;;9.40;99.90;;;;;;5073492;28;20173;-63
2024/04/06 04:37:23;;;;;;;3.53;1.20;;;9.30;99.90;;;;;;5073169;28;20208;-63
2024/04/06 04:39:49;;;;;;;1.40;1.30;;;9.20;99.90;;;;;;5073067;28;20639;-63
2024/04/06 04:42:14;;;;;;;1.30;1.20;;;9.10;99.90;;;;;;5073483;28;20170;-63
2024/04/06 04:44:40;;;;;;;3.03;1.67;;;9.20;99.90;;;;;;5055412;28;20288;-63
2024/04/06 04:47:05;;;;;;;1.67;1.57;;;9.20;99.90;;;;;;5054977;28;20174;-63
2024/04/06 04:49:31;;;;;;;2.07;1.60;;;9.20;99.90;;;;;;5072651;28;20193;-63
2024/04/06 04:51:57;;;;;;;1.67;1.17;;;9.20;99.90;;;;;;5072821;28;20314;-63
2024/04/06 04:54:22;;;;;;;1.47;1.30;;;9.10;99.90;;;;;;5054647;28;20216;-63
2024/04/06 04:56:48;;;;;;;1.83;1.50;;;9.10;99.90;;;;;;5072402;28;20666;-63
2024/04/06 04:59:14;;;;;;;1.30;1.20;;;9.10;99.90;;;;;;5072539;28;20210;-63
2024/04/06 05:01:39;;;;;;;1.37;1.20;;;9.10;99.90;;;;;;5072697;28;20211;-63
2024/04/06 05:04:05;;;;;;;1.30;1.20;;;9.10;99.90;;;;;;5055194;28;20173;-63
2024/04/06 05:06:31;;;;;;;1.50;1.30;;;9.10;99.90;;;;;;5054355;28;20184;-63
2024/04/06 05:08:58;;;;;;;1.65;1.45;;;9.10;99.90;;;;;;5071941;28;20197;-63
2024/04/06 05:11:24;;;;;;;1.67;1.58;;;9.10;99.90;;;;;;5072346;28;20201;-64
2024/04/06 05:13:50;;;;;;;2.20;2.00;;;9.00;99.90;;;;;;5054706;28;20215;-63
2024/04/06 05:16:16;;;;;;;3.40;3.00;;;9.00;99.90;;;;;;5054334;28;20185;-64
2024/04/06 05:18:42;;;;;;;4.10;2.15;;;9.70;99.90;;;;;;5071964;28;20648;-64
2024/04/06 05:21:07;;;;;;;3.27;2.80;;;8.90;99.90;;;;;;5054311;28;20201;-64
2024/04/06 05:23:33;;;;;;;2.33;2.13;;;9.30;99.90;;;;;;5072294;28;20168;-63
2024/04/06 05:26:00;;;;;;;1.80;1.70;;;9.40;99.90;;;;;;5072502;28;20165;-63
2024/04/06 05:28:25;;;;;;;3.15;2.47;;;9.40;99.90;;;;;;5072311;28;20189;-63
2024/04/06 05:30:51;;;;;;;2.43;2.23;;;9.50;99.90;;;;;;5072056;28;20242;-64
2024/04/06 05:33:19;;;;;;;2.95;1.70;;;9.60;99.90;;;;;;5072503;28;20651;-64
2024/04/06 05:35:49;;;;;;;2.13;1.92;;;9.80;99.90;;;;;;5072599;28;20217;-64
2024/04/06 05:38:16;;;;;;;1.52;1.13;;;9.90;99.90;;;;;;5072437;28;20769;-64
2024/04/06 05:40:44;;;;;;;1.40;1.30;;;9.80;99.90;;;;;;5071908;28;20636;-63
2024/04/06 05:43:10;;;;;;;1.73;1.02;;;9.90;99.90;;;;;;5071873;28;20300;-63
2024/04/06 05:45:37;;;;;;;1.80;1.70;;;10.10;99.90;;;;;;5072558;28;20223;-63
2024/04/06 05:48:03;;;;;;;1.35;1.20;;;10.30;99.90;;;;;;5071824;28;20721;-63
2024/04/06 05:50:40;;;;;;;1.60;1.50;;;10.30;99.90;;;;;;5071515;28;20196;-63
2024/04/06 05:53:06;;;;;;;1.15;1.05;;;10.50;99.90;;;;;;5072310;28;20161;-63
2024/04/06 05:55:32;;;;;;;1.37;0.97;;;10.50;99.90;;;;;;5070442;28;20685;-64
2024/04/06 05:57:57;;;;;;;1.17;1.07;;;10.60;99.90;;;;;;5053466;28;20213;-63
2024/04/06 06:00:26;;;;;;;1.53;1.43;;;10.70;99.90;;;;;;5071222;28;20404;-64
2024/04/06 06:02:53;;;;;;;2.07;0.93;;;10.80;99.90;;;;;;5072082;28;20181;-63
2024/04/06 06:05:19;;;;;;;3.27;1.00;;;10.80;99.90;;;;;;5072558;28;20882;-62
2024/04/06 06:07:45;;;;;;;0.90;0.90;;;11.10;99.90;;;;;;5072507;28;20436;-63
2024/04/06 06:10:11;;;;;;;1.30;1.20;;;11.20;99.90;;;;;;5071578;28;20525;-63
2024/04/06 06:12:36;;;;;;;1.07;1.03;;;11.30;99.90;;;;;;5072026;28;20531;-63
2024/04/06 06:15:03;;;;;;;1.30;1.20;;;11.50;99.90;;;;;;5071989;28;20499;-63
2024/04/06 06:17:28;;;;;;;1.50;1.37;;;11.70;99.90;;;;;;5072882;28;20590;-63
2024/04/06 06:19:54;;;;;;;1.53;1.13;;;11.80;99.90;;;;;;5071935;28;20411;-63
2024/04/06 06:22:20;;;;;;;5.27;1.33;;;11.70;99.90;;;;;;5076009;28;20166;-63
2024/04/06 06:24:45;;;;;;;2.50;2.10;;;12.00;99.90;;;;;;5076049;28;20549;-63
2024/04/06 06:27:11;;;;;;;3.13;1.53;;;12.20;99.90;;;;;;5057925;28;20200;-63
2024/04/06 06:29:38;;;;;;;1.57;1.47;;;12.50;99.90;;;;;;5075581;28;20632;-63
2024/04/06 06:32:03;;;;;;;2.00;1.57;;;12.80;99.90;;;;;;5075965;28;20461;-63
2024/04/06 06:34:30;;;;;;;2.40;2.20;;;13.00;99.90;;;;;;5075987;28;20444;-64
2024/04/06 06:36:56;;;;;;;2.33;1.80;;;13.20;99.90;;;;;;5075739;28;20461;-63
2024/04/06 06:39:22;;;;;;;2.57;2.07;;;13.50;99.90;;;;;;5057405;28;20519;-64
2024/04/06 06:41:47;;;;;;;3.53;3.23;;;13.70;99.00;;;;;;5057950;28;20443;-64
2024/04/06 06:44:14;;;;;;;4.27;1.83;;;13.90;99.30;;;;;;5057354;28;20867;-64
2024/04/06 06:46:39;;;;;;;1.90;1.80;;;14.10;98.80;;;;;;5057148;28;20174;-64
2024/04/06 06:49:05;;;;;;;6.93;1.83;;;14.40;97.90;;;;;;5080474;28;20851;-64
2024/04/06 06:51:32;;;;;;;1.80;1.70;;;14.90;98.30;;;;;;5095389;28;20251;-64
2024/04/06 06:53:57;;;;;;;2.57;2.37;;;15.70;97.40;;;;;;5077177;28;20925;-64
2024/04/06 06:56:23;;;;;;;2.33;1.50;;;16.70;96.40;;;;;;5094485;28;20168;-65
2024/04/06 06:58:50;;;;;;;4.07;1.40;;;17.50;93.80;;;;;;5094393;28;20784;-65
2024/04/06 07:01:16;;;;;;;4.00;3.00;;;18.10;92.90;;;;;;5076731;28;20424;-65
2024/04/06 07:03:42;;;;;;;3.83;2.40;;;18.70;91.40;;;;;;5095068;28;20471;-65
2024/04/06 07:06:10;;;;;;;2.60;2.00;;;19.20;89.90;;;;;;5095235;28;20443;-64
2024/04/06 07:08:35;;;;;;;3.50;2.10;;;19.50;90.20;;;;;;5094854;28;20220;-65
2024/04/06 07:11:04;;;;;;;2.47;2.27;;;20.00;89.00;;;;;;5094753;28;20932;-65
2024/04/06 07:13:30;;;;;;;2.40;1.83;;;20.70;85.00;;;;;;5076951;28;20181;-65
2024/04/06 07:16:09;;;;;;;8.33;3.27;;;21.20;85.70;;;;;;5076782;28;20415;-65
2024/04/06 07:18:39;;;;;;;2.70;2.17;;;21.70;81.00;;;;;;5094835;28;20486;-65
2024/04/06 07:21:10;;;;;;;4.03;1.80;;;21.80;78.00;;;;;;5094432;28;20780;-65
2024/04/06 07:23:36;;;;;;;2.60;1.90;;;21.80;78.20;;;;;;5094812;28;20434;-65
2024/04/06 07:26:01;;;;;;;3.87;2.27;;;22.20;78.60;;;;;;5076162;28;20430;-63
2024/04/06 07:28:28;;;;;;;3.00;1.57;;;22.90;75.50;;;;;;5076793;28;20208;-64
2024/04/06 07:30:53;;;;;;;5.97;3.00;;;23.90;72.20;;;;;;5094422;28;20434;-64
2024/04/06 07:33:19;;;;;;;2.60;2.20;;;24.90;69.30;;;;;;5093631;28;20905;-64
2024/04/06 07:35:48;;;;;;;1.73;1.37;;;26.10;66.80;;;;;;5094456;28;20173;-64
2024/04/06 07:38:13;;;;;;;2.30;1.50;;;27.00;59.10;;;;;;5094388;28;20213;-64
2024/04/06 07:40:39;;;;;;;3.17;1.40;;;27.60;57.90;;;;;;5094304;28;20438;-65
2024/04/06 07:43:05;;;;;;;2.00;1.40;;;27.70;56.10;;;;;;5094227;28;20183;-64
2024/04/06 07:45:31;;;;;;;2.40;1.57;;;28.10;55.00;;;;;;5076569;28;20690;-64
2024/04/06 07:47:57;;;;;;;1.30;1.20;;;28.60;53.40;;;;;;5094018;28;20195;-64
2024/04/06 07:50:23;;;;;;;2.03;1.83;;;29.60;52.10;;;;;;5092940;28;20168;-64
2024/04/06 07:52:51;;;;;;;2.20;0.93;;;30.40;49.90;;;;;;5093956;28;20762;-64
2024/04/06 07:55:17;;;;;;;2.10;1.90;;;31.40;49.80;;;;;;5093632;28;20536;-64
2024/04/06 07:57:44;;;;;;;2.40;1.47;;;32.20;46.40;;;;;;5082605;28;20463;-64
2024/04/06 08:00:11;;;;;;;1.50;1.40;;;32.60;43.50;;;;;;5073734;28;20173;-64
2024/04/06 08:02:37;;;;;;;1.27;1.17;;;33.00;43.40;;;;;;5073761;28;20931;-65
2024/04/06 08:05:03;;;;;;;1.43;1.33;;;33.10;40.40;;;;;;5073692;28;20479;-64
2024/04/06 08:07:30;;;;;;;1.97;1.10;;;32.90;42.40;;;;;;5073375;28;20166;-64
2024/04/06 08:09:58;;;;;;;4.50;1.53;;;32.70;42.50;;;;;;5055156;28;20224;-65
2024/04/06 08:12:24;;;;;;;1.60;1.20;;;32.30;42.80;;;;;;5081839;28;20996;-64
2024/04/06 08:14:50;;;;;;;1.33;1.20;;;32.00;42.20;;;;;;5084109;28;20400;-64
2024/04/06 08:17:16;;;;;;;1.50;1.07;;;31.70;42.00;;;;;;5073176;28;20824;-65
2024/04/06 08:19:42;;;;;;;8.23;1.30;;;31.70;42.40;;;;;;5080835;28;20572;-65
2024/04/06 08:22:07;;;;;;;2.80;1.70;;;32.00;41.10;;;;;;5074345;28;20169;-65
2024/04/06 08:24:33;;;;;;;1.53;1.40;;;32.90;40.00;;;;;;5081890;28;20548;-65
2024/04/06 08:26:59;;;;;;;1.00;0.97;;;33.90;38.80;;;;;;5082979;28;20169;-65
2024/04/06 08:29:24;;;;;;;1.20;1.03;;;34.30;33.80;;;;;;5107247;22;20231;-62
2024/04/06 08:31:50;;;;;;;2.20;1.13;;;34.10;33.20;;;;;;5104113;28;20175;-61
2024/04/06 08:34:15;;;;;;;1.70;1.17;;;33.60;32.70;;;;;;5103793;28;20165;-62
2024/04/06 08:36:41;;;;;;;1.20;1.00;;;32.90;30.90;;;;;;5102849;28;20636;-60
2024/04/06 08:39:08;;;;;;;1.60;1.50;;;31.90;31.40;;;;;;5096390;28;20200;-61
2024/04/06 08:41:34;;;;;;;0.70;0.70;;;31.20;33.50;;;;;;5083765;28;20165;-60
2024/04/06 08:44:00;;;;;;;1.43;1.10;;;30.10;33.00;;;;;;5072390;28;20772;-61
2024/04/06 08:46:26;;;;;;;1.47;0.70;;;29.30;34.50;;;;;;5072839;28;20173;-61
2024/04/06 08:48:52;;;;;;;1.20;1.10;;;28.60;34.70;;;;;;5071961;28;20435;-61
2024/04/06 08:51:20;;;;;;;2.30;1.50;;;28.00;36.30;;;;;;5072110;28;20407;-60
2024/04/06 08:53:46;;;;;;;1.00;1.00;;;27.90;36.90;;;;;;5072230;28;20410;-61
2024/04/06 08:56:15;;;;;;;1.87;0.97;;;27.50;36.70;;;;;;5071988;28;20403;-60
2024/04/06 08:58:41;;;;;;;1.23;1.03;;;27.30;37.70;;;;;;5071728;28;20204;-61
2024/04/06 09:01:07;;;;;;;1.17;1.07;;;27.10;38.20;;;;;;5072960;28;20526;-61
2024/04/06 09:03:33;;;;;;;1.37;1.20;;;26.80;38.10;;;;;;5072690;28;20412;-61
2024/04/06 09:05:59;;;;;;;1.00;0.80;;;26.80;38.30;;;;;;5072600;28;20248;-61
2024/04/06 09:08:25;;;;;;;1.90;1.00;;;27.00;37.90;;;;;;5072422;28;20567;-61
2024/04/06 09:10:57;;;;;;;1.83;1.00;;;27.60;37.40;;;;;;5072262;28;20428;-61
2024/04/06 09:13:23;;;;;;;1.30;0.80;;;28.30;36.80;;;;;;5072598;28;20208;-61
2024/04/06 09:15:49;;;;;;;2.73;0.97;;;28.40;36.20;;;;;;5072385;28;20404;-61
2024/04/06 09:18:16;;;;;;;1.90;0.90;;;29.30;37.10;;;;;;5072232;28;20444;-61
2024/04/06 09:20:42;;;;;;;1.07;0.90;;;30.10;34.30;;;;;;5071927;28;20366;-61
2024/04/06 09:23:07;;;;;;;1.60;0.90;;;30.40;33.70;;;;;;5072197;28;20972;-61
2024/04/06 09:25:33;;;;;;;2.03;1.10;;;30.20;33.20;;;;;;5072186;28;20170;-61
2024/04/06 09:28:03;;;;;;;1.23;1.00;;;29.10;34.70;;;;;;5072190;28;20639;-61
2024/04/06 09:30:43;;;;;;;0.80;0.70;;;28.50;35.00;;;;;;5071789;28;20244;-61
2024/04/06 09:33:12;;;;;;;3.03;1.07;;;27.60;35.90;;;;;;5072115;28;20905;-61
2024/04/06 09:35:39;;;;;;;3.17;1.20;;;27.00;36.60;;;;;;5072011;28;20416;-61
2024/04/06 09:38:13;;;;;;;3.13;0.80;;;26.40;37.60;;;;;;5072055;28;20455;-60
2024/04/06 09:40:42;;;;;;;1.37;1.00;;;26.10;37.90;;;;;;5071650;28;20866;-61
2024/04/06 09:43:09;;;;;;;1.60;1.10;;;26.20;38.00;;;;;;5071979;28;20416;-60
2024/04/06 09:45:35;;;;;;;0.80;0.77;;;26.50;37.50;;;;;;5071631;28;20415;-60
2024/04/06 09:48:02;;;;;;;1.63;0.93;;;26.70;37.20;;;;;;5071512;28;20411;-61
2024/04/06 09:50:35;;;;;;;0.80;0.77;;;26.80;37.10;;;;;;5071069;28;20522;-61
2024/04/06 09:53:01;;;;;;;0.73;0.73;;;26.10;37.00;;;;;;5070483;28;20407;-61
2024/04/06 09:55:29;;;;;;;1.10;0.60;;;25.20;38.10;;;;;;5070273;28;20407;-60
2024/04/06 09:57:56;;;;;;;0.80;0.80;;;25.00;39.10;;;;;;5071640;28;20979;-61
2024/04/06 10:00:21;;;;;;;2.33;1.00;;;25.20;38.80;;;;;;5071304;28;20518;-60
2024/04/06 10:02:50;;;;;;;0.73;0.57;;;25.70;38.40;;;;;;5071683;28;20493;-61
2024/04/06 10:05:16;;;;;;;2.23;0.70;;;26.00;37.80;;;;;;5071726;28;20172;-61
2024/04/06 10:07:49;;;;;;;2.40;1.20;;;26.10;36.60;;;;;;5071582;28;20407;-60
2024/04/06 10:10:15;;;;;;;1.60;0.97;;;26.00;38.60;;;;;;5071209;28;20201;-61
2024/04/06 10:12:46;;;;;;;1.73;1.10;;;26.50;37.20;;;;;;5078112;28;20407;-60
2024/04/06 10:15:17;;;;;;;1.93;1.13;;;27.00;36.30;;;;;;5090960;28;20427;-61
2024/04/06 10:17:45;;;;;;;0.97;0.97;;;27.30;35.40;;;;;;5091315;28;20457;-60
2024/04/06 10:20:13;;;;;;;1.57;1.13;;;27.40;35.90;;;;;;5091491;28;20510;-60
2024/04/06 10:22:48;;;;;;;1.47;0.97;;;27.70;35.50;;;;;;5091817;28;20936;-60
2024/04/06 10:25:14;;;;;;;1.13;1.00;;;27.70;33.50;;;;;;5092079;28;20406;-60
2024/04/06 10:27:40;;;;;;;1.27;0.93;;;27.20;34.70;;;;;;5091488;28;20828;-61
2024/04/06 10:30:06;;;;;;;1.10;1.00;;;26.90;34.00;;;;;;5091349;28;20212;-60
2024/04/06 10:32:33;;;;;;;3.40;0.93;;;26.50;34.00;;;;;;5091643;28;20180;-61
2024/04/06 10:35:00;;;;;;;1.27;1.03;;;26.10;34.50;;;;;;5091579;28;20407;-60
2024/04/06 10:37:26;;;;;;;2.10;0.73;;;25.80;34.50;;;;;;5091415;28;20457;-60
2024/04/06 10:39:52;;;;;;;9.90;1.03;;;25.70;34.90;;;;;;5091374;28;20430;-61
2024/04/06 10:42:17;;;;;;;1.77;0.83;;;25.70;33.90;;;;;;5091309;28;20410;-60
2024/04/06 10:44:43;;;;;;;3.27;1.13;;;25.50;34.10;;;;;;5090876;28;20190;-60
2024/04/06 10:47:09;;;;;;;3.33;1.17;;;25.20;34.30;;;;;;5091399;28;20302;-61
2024/04/06 10:49:35;;;;;;;3.00;1.20;;;25.20;33.80;;;;;;5091134;28;20185;-61
2024/04/06 10:52:00;;;;;;;1.40;0.80;;;24.90;33.60;;;;;;5091253;28;20414;-61
2024/04/06 10:54:26;;;;;;;3.60;0.80;;;24.60;35.10;;;;;;5091287;28;20169;-60
2024/04/06 10:56:53;;;;;;;1.17;1.07;;;24.50;35.80;;;;;;5091170;28;20184;-60
2024/04/06 10:59:20;;;;;;;0.90;0.73;;;24.40;36.20;;;;;;5091192;28;20771;-61
2024/04/06 11:01:46;;;;;;;1.07;0.90;;;24.30;36.40;;;;;;5091370;28;20750;-60
2024/04/06 11:04:12;;;;;;;1.13;1.00;;;24.20;35.30;;;;;;5068572;28;20414;-60
2024/04/06 11:06:37;;;;;;;2.00;1.00;;;24.10;36.30;;;;;;5068377;28;20256;-59
2024/04/06 11:09:06;;;;;;;1.30;1.20;;;24.00;37.70;;;;;;5073439;28;20446;-59
2024/04/06 11:11:32;;;;;;;1.37;1.10;;;24.00;38.00;;;;;;5071296;28;20192;-60
2024/04/06 11:13:58;;;;;;;0.90;0.90;;;24.10;37.60;;;;;;5073411;28;20864;-60
2024/04/06 11:16:25;;;;;;;0.50;0.40;;;24.10;38.20;;;;;;5071628;28;20320;-59
2024/04/06 11:18:51;;;;;;;1.13;0.77;;;23.90;37.70;;;;;;5074156;28;20455;-60
2024/04/06 11:21:18;;;;;;;0.97;0.70;;;23.90;37.40;;;;;;5074229;28;20419;-61
2024/04/06 11:23:47;;;;;;;0.70;0.70;;;23.80;38.10;;;;;;5074356;28;20589;-60
2024/04/06 11:26:12;;;;;;;1.60;1.50;;;23.70;38.30;;;;;;5074577;28;20544;-60
2024/04/06 11:28:39;;;;;;;0.57;0.57;;;23.50;37.50;;;;;;5073695;28;20412;-60
2024/04/06 11:31:05;;;;;;;1.23;1.13;;;23.60;38.60;;;;;;5074074;28;20189;-60
2024/04/06 11:33:31;;;;;;;2.97;1.13;;;23.60;39.60;;;;;;5073697;28;20798;-60
2024/04/06 11:35:56;;;;;;;1.47;0.93;;;23.70;39.70;;;;;;5074106;28;20177;-61
2024/04/06 11:38:22;;;;;;;0.97;0.90;;;23.50;38.60;;;;;;5073811;28;20736;-60
2024/04/06 11:40:52;;;;;;;0.83;0.80;;;23.40;38.30;;;;;;5073536;28;20277;-60
2024/04/06 11:43:18;;;;;;;1.03;1.00;;;23.40;37.30;;;;;;5073773;28;20691;-60
2024/04/06 11:45:45;;;;;;;5.40;1.30;;;23.60;37.70;;;;;;5072586;28;20407;-60
2024/04/06 11:48:12;;;;;;;3.13;1.20;;;23.60;35.90;;;;;;5072052;28;20811;-60
2024/04/06 11:50:38;;;;;;;2.07;1.03;;;23.70;36.20;;;;;;5073457;28;20417;-60
2024/04/06 11:53:04;;;;;;;2.30;1.00;;;23.70;36.70;;;;;;5072995;28;20420;-61
2024/04/06 11:55:30;;;;;;;1.40;0.80;;;23.60;36.60;;;;;;5069738;28;20443;-60
2024/04/06 11:57:56;;;;;;;0.77;0.70;;;23.70;36.90;;;;;;5073693;28;20213;-60
2024/04/06 12:00:21;;;;;;;0.97;0.87;;;23.70;36.80;;;;;;5073323;28;20438;-60
2024/04/06 12:02:47;;;;;;;1.70;1.10;;;23.80;37.40;;;;;;5073829;28;20219;-60
2024/04/06 12:05:13;;;;;;;0.80;0.80;;;23.80;37.40;;;;;;5073638;28;20564;-60
2024/04/06 12:07:39;;;;;;;1.60;1.20;;;23.90;37.70;;;;;;5073239;28;20170;-63
2024/04/06 12:10:05;;;;;;;0.70;0.70;;;23.70;38.80;;;;;;5073477;28;20284;-62
2024/04/06 12:12:31;;;;;;;3.50;1.27;;;23.50;37.60;;;;;;5073397;28;20419;-63
2024/04/06 12:14:57;;;;;;;4.47;1.23;;;23.60;38.90;;;;;;5072550;28;20400;-63
2024/04/06 12:17:27;;;;;;;1.73;0.77;;;23.60;38.40;;;;;;5072043;28;20422;-63
2024/04/06 12:19:56;;;;;;;1.93;1.23;;;23.60;37.60;;;;;;5072402;28;20197;-64
2024/04/06 12:22:22;;;;;;;0.60;0.60;;;23.50;38.20;;;;;;5073656;28;20408;-63
2024/04/06 12:24:48;;;;;;;0.90;0.70;;;23.40;38.40;;;;;;5072835;28;20458;-63
2024/04/06 12:27:17;;;;;;;1.67;0.87;;;23.40;39.30;;;;;;5072504;28;20205;-63
2024/04/06 12:29:47;;;;;;;1.10;0.90;;;23.40;38.80;;;;;;5072876;28;20472;-62
2024/04/06 12:32:13;;;;;;;0.77;0.50;;;23.40;38.60;;;;;;5073041;28;20478;-64
2024/04/06 12:34:39;;;;;;;1.00;0.90;;;23.50;39.70;;;;;;5072308;28;20839;-62
2024/04/06 12:37:10;;;;;;;0.77;0.77;;;23.40;39.00;;;;;;5072614;28;20524;-64
2024/04/06 12:39:39;;;;;;;1.00;0.90;;;23.50;39.00;;;;;;5072491;28;20440;-64
2024/04/06 12:42:09;;;;;;;0.80;0.80;;;23.60;39.90;;;;;;5071642;28;20794;-64
2024/04/06 12:44:37;;;;;;;1.27;0.90;;;23.70;38.70;;;;;;5070313;28;20502;-64